sensor_id;sensor_type;location;lat;lon;timestamp;P1;durP1;ratioP1;P2;durP2;ratioP2
359;SDS011;168;48.872;9.226;2023-02-27T00:01:50;2.30;;;2.10;;
359;SDS011;168;48.872;9.226;2023-02-27T00:04:17;3.43;;;2.17;;
359;SDS011;168;48.872;9.226;2023-02-27T00:06:45;2.40;;;2.20;;
359;SDS011;168;48.872;9.226;2023-02-27T00:09:13;2.23;;;2.13;;
359;SDS011;168;48.872;9.226;2023-02-27T00:11:41;2.50;;;2.30;;
359;SDS011;168;48.872;9.226;2023-02-27T00:14:08;2.90;;;2.60;;
359;SDS011;168;48.872;9.226;2023-02-27T00:16:35;2.83;;;2.37;;
359;SDS011;168;48.872;9.226;2023-02-27T00:19:03;2.60;;;2.30;;
359;SDS011;168;48.872;9.226;2023-02-27T00:21:30;3.10;;;2.90;;
359;SDS011;168;48.872;9.226;2023-02-27T00:23:58;2.57;;;2.43;;
359;SDS011;168;48.872;9.226;2023-02-27T00:26:26;2.73;;;2.53;;
359;SDS011;168;48.872;9.226;2023-02-27T00:28:53;2.40;;;2.20;;
359;SDS011;168;48.872;9.226;2023-02-27T00:31:21;2.73;;;2.53;;
359;SDS011;168;48.872;9.226;2023-02-27T00:33:48;2.90;;;2.60;;
359;SDS011;168;48.872;9.226;2023-02-27T00:36:15;2.50;;;2.40;;
359;SDS011;168;48.872;9.226;2023-02-27T00:38:43;2.80;;;2.27;;
359;SDS011;168;48.872;9.226;2023-02-27T00:41:10;2.53;;;2.33;;
359;SDS011;168;48.872;9.226;2023-02-27T00:43:39;2.97;;;2.77;;
359;SDS011;168;48.872;9.226;2023-02-27T00:46:06;3.33;;;3.03;;
359;SDS011;168;48.872;9.226;2023-02-27T00:48:34;2.83;;;2.63;;
359;SDS011;168;48.872;9.226;2023-02-27T00:51:02;2.67;;;2.47;;
359;SDS011;168;48.872;9.226;2023-02-27T00:53:29;3.37;;;2.43;;
359;SDS011;168;48.872;9.226;2023-02-27T00:55:56;2.90;;;2.60;;
359;SDS011;168;48.872;9.226;2023-02-27T00:58:24;3.43;;;2.80;;
359;SDS011;168;48.872;9.226;2023-02-27T01:00:53;3.40;;;2.63;;
359;SDS011;168;48.872;9.226;2023-02-27T01:03:20;3.03;;;2.83;;
359;SDS011;168;48.872;9.226;2023-02-27T01:05:47;2.83;;;2.30;;
359;SDS011;168;48.872;9.226;2023-02-27T01:08:14;3.23;;;2.53;;
359;SDS011;168;48.872;9.226;2023-02-27T01:10:42;2.73;;;2.53;;
359;SDS011;168;48.872;9.226;2023-02-27T01:13:09;2.53;;;2.33;;
359;SDS011;168;48.872;9.226;2023-02-27T01:15:36;2.90;;;2.63;;
359;SDS011;168;48.872;9.226;2023-02-27T01:18:05;2.80;;;2.60;;
359;SDS011;168;48.872;9.226;2023-02-27T01:20:32;3.13;;;2.70;;
359;SDS011;168;48.872;9.226;2023-02-27T01:23:00;2.60;;;2.50;;
359;SDS011;168;48.872;9.226;2023-02-27T01:25:27;3.27;;;3.00;;
359;SDS011;168;48.872;9.226;2023-02-27T01:27:54;2.80;;;2.70;;
359;SDS011;168;48.872;9.226;2023-02-27T01:30:22;3.80;;;2.60;;
359;SDS011;168;48.872;9.226;2023-02-27T01:32:49;3.10;;;2.90;;
359;SDS011;168;48.872;9.226;2023-02-27T01:35:18;2.70;;;2.50;;
359;SDS011;168;48.872;9.226;2023-02-27T01:37:45;2.97;;;2.77;;
359;SDS011;168;48.872;9.226;2023-02-27T01:40:12;2.37;;;2.27;;
359;SDS011;168;48.872;9.226;2023-02-27T01:42:40;2.67;;;2.47;;
359;SDS011;168;48.872;9.226;2023-02-27T01:45:24;3.17;;;2.93;;
359;SDS011;168;48.872;9.226;2023-02-27T01:47:56;2.40;;;2.30;;
359;SDS011;168;48.872;9.226;2023-02-27T01:50:29;3.37;;;3.07;;
359;SDS011;168;48.872;9.226;2023-02-27T01:52:58;2.40;;;2.30;;
359;SDS011;168;48.872;9.226;2023-02-27T01:55:28;4.00;;;3.00;;
359;SDS011;168;48.872;9.226;2023-02-27T01:57:56;2.30;;;2.20;;
359;SDS011;168;48.872;9.226;2023-02-27T02:00:24;2.60;;;2.40;;
359;SDS011;168;48.872;9.226;2023-02-27T02:02:55;2.80;;;2.53;;
359;SDS011;168;48.872;9.226;2023-02-27T02:05:26;4.63;;;3.07;;
359;SDS011;168;48.872;9.226;2023-02-27T02:07:56;2.83;;;2.50;;
359;SDS011;168;48.872;9.226;2023-02-27T02:10:23;3.00;;;2.70;;
359;SDS011;168;48.872;9.226;2023-02-27T02:12:52;3.30;;;2.77;;
359;SDS011;168;48.872;9.226;2023-02-27T02:15:20;3.20;;;3.00;;
359;SDS011;168;48.872;9.226;2023-02-27T02:17:55;3.10;;;2.80;;
359;SDS011;168;48.872;9.226;2023-02-27T02:20:43;3.77;;;3.30;;
359;SDS011;168;48.872;9.226;2023-02-27T02:26:48;5.10;;;2.90;;
359;SDS011;168;48.872;9.226;2023-02-27T02:32:41;3.60;;;3.27;;
359;SDS011;168;48.872;9.226;2023-02-27T02:35:42;3.30;;;3.00;;
359;SDS011;168;48.872;9.226;2023-02-27T02:38:39;2.97;;;2.77;;
359;SDS011;168;48.872;9.226;2023-02-27T02:41:16;3.53;;;3.23;;
359;SDS011;168;48.872;9.226;2023-02-27T02:43:53;3.00;;;2.73;;
359;SDS011;168;48.872;9.226;2023-02-27T02:46:29;4.67;;;3.37;;
359;SDS011;168;48.872;9.226;2023-02-27T02:49:03;4.33;;;3.33;;
359;SDS011;168;48.872;9.226;2023-02-27T02:51:38;3.27;;;2.97;;
359;SDS011;168;48.872;9.226;2023-02-27T02:54:12;3.30;;;3.10;;
359;SDS011;168;48.872;9.226;2023-02-27T02:56:43;3.30;;;2.67;;
359;SDS011;168;48.872;9.226;2023-02-27T02:59:16;3.30;;;2.73;;
359;SDS011;168;48.872;9.226;2023-02-27T03:01:49;3.27;;;2.67;;
359;SDS011;168;48.872;9.226;2023-02-27T03:04:20;2.80;;;2.60;;
359;SDS011;168;48.872;9.226;2023-02-27T03:06:53;3.20;;;2.93;;
359;SDS011;168;48.872;9.226;2023-02-27T03:09:27;3.20;;;2.60;;
359;SDS011;168;48.872;9.226;2023-02-27T03:11:58;3.00;;;2.80;;
359;SDS011;168;48.872;9.226;2023-02-27T03:14:29;4.20;;;3.10;;
359;SDS011;168;48.872;9.226;2023-02-27T03:17:01;3.30;;;3.03;;
359;SDS011;168;48.872;9.226;2023-02-27T03:19:33;3.50;;;2.93;;
359;SDS011;168;48.872;9.226;2023-02-27T03:22:06;3.80;;;2.67;;
359;SDS011;168;48.872;9.226;2023-02-27T03:24:37;7.17;;;3.60;;
359;SDS011;168;48.872;9.226;2023-02-27T03:27:08;3.27;;;3.07;;
359;SDS011;168;48.872;9.226;2023-02-27T03:29:37;4.40;;;2.90;;
359;SDS011;168;48.872;9.226;2023-02-27T03:32:09;3.27;;;2.97;;
359;SDS011;168;48.872;9.226;2023-02-27T03:34:42;5.50;;;5.07;;
359;SDS011;168;48.872;9.226;2023-02-27T03:37:13;4.37;;;3.03;;
359;SDS011;168;48.872;9.226;2023-02-27T03:39:57;4.10;;;3.70;;
359;SDS011;168;48.872;9.226;2023-02-27T03:42:31;3.03;;;2.80;;
359;SDS011;168;48.872;9.226;2023-02-27T03:45:02;3.23;;;3.03;;
359;SDS011;168;48.872;9.226;2023-02-27T03:47:33;5.43;;;3.77;;
359;SDS011;168;48.872;9.226;2023-02-27T03:50:01;3.23;;;2.93;;
359;SDS011;168;48.872;9.226;2023-02-27T03:52:29;3.37;;;3.10;;
359;SDS011;168;48.872;9.226;2023-02-27T03:54:59;5.13;;;3.10;;
359;SDS011;168;48.872;9.226;2023-02-27T03:57:32;3.07;;;2.87;;
359;SDS011;168;48.872;9.226;2023-02-27T04:00:02;3.10;;;2.80;;
359;SDS011;168;48.872;9.226;2023-02-27T04:02:31;3.60;;;3.30;;
359;SDS011;168;48.872;9.226;2023-02-27T04:04:59;4.20;;;2.97;;
359;SDS011;168;48.872;9.226;2023-02-27T04:07:28;3.13;;;2.80;;
359;SDS011;168;48.872;9.226;2023-02-27T04:10:18;3.50;;;3.30;;
359;SDS011;168;48.872;9.226;2023-02-27T04:13:00;3.13;;;2.93;;
359;SDS011;168;48.872;9.226;2023-02-27T04:15:43;3.60;;;3.30;;
359;SDS011;168;48.872;9.226;2023-02-27T04:18:29;3.20;;;2.90;;
359;SDS011;168;48.872;9.226;2023-02-27T04:21:08;3.10;;;2.90;;
359;SDS011;168;48.872;9.226;2023-02-27T04:23:40;3.40;;;3.10;;
359;SDS011;168;48.872;9.226;2023-02-27T04:26:19;3.07;;;2.80;;
359;SDS011;168;48.872;9.226;2023-02-27T04:28:55;3.67;;;3.37;;
359;SDS011;168;48.872;9.226;2023-02-27T04:31:29;4.10;;;3.60;;
359;SDS011;168;48.872;9.226;2023-02-27T04:34:09;2.97;;;2.77;;
359;SDS011;168;48.872;9.226;2023-02-27T04:36:45;3.77;;;3.37;;
359;SDS011;168;48.872;9.226;2023-02-27T04:39:17;3.73;;;3.30;;
359;SDS011;168;48.872;9.226;2023-02-27T04:41:50;3.93;;;3.50;;
359;SDS011;168;48.872;9.226;2023-02-27T04:44:20;5.13;;;4.03;;
359;SDS011;168;48.872;9.226;2023-02-27T04:46:50;3.20;;;2.90;;
359;SDS011;168;48.872;9.226;2023-02-27T04:49:22;3.70;;;3.40;;
359;SDS011;168;48.872;9.226;2023-02-27T04:51:54;5.33;;;3.67;;
359;SDS011;168;48.872;9.226;2023-02-27T04:54:26;3.67;;;3.37;;
359;SDS011;168;48.872;9.226;2023-02-27T04:57:00;5.87;;;4.20;;
359;SDS011;168;48.872;9.226;2023-02-27T04:59:33;4.93;;;3.63;;
359;SDS011;168;48.872;9.226;2023-02-27T05:02:06;5.53;;;3.80;;
359;SDS011;168;48.872;9.226;2023-02-27T05:04:38;4.20;;;3.73;;
359;SDS011;168;48.872;9.226;2023-02-27T05:07:09;4.90;;;3.57;;
359;SDS011;168;48.872;9.226;2023-02-27T05:09:44;3.37;;;3.07;;
359;SDS011;168;48.872;9.226;2023-02-27T05:12:18;4.20;;;3.70;;
359;SDS011;168;48.872;9.226;2023-02-27T05:14:48;3.90;;;3.60;;
359;SDS011;168;48.872;9.226;2023-02-27T05:17:20;3.70;;;3.30;;
359;SDS011;168;48.872;9.226;2023-02-27T05:19:52;3.97;;;3.53;;
359;SDS011;168;48.872;9.226;2023-02-27T05:22:21;4.97;;;3.50;;
359;SDS011;168;48.872;9.226;2023-02-27T05:24:56;5.83;;;3.37;;
359;SDS011;168;48.872;9.226;2023-02-27T05:27:32;4.33;;;3.70;;
359;SDS011;168;48.872;9.226;2023-02-27T05:30:07;4.10;;;3.53;;
359;SDS011;168;48.872;9.226;2023-02-27T05:32:39;3.70;;;3.40;;
359;SDS011;168;48.872;9.226;2023-02-27T05:35:12;4.50;;;4.10;;
359;SDS011;168;48.872;9.226;2023-02-27T05:37:47;4.43;;;3.83;;
359;SDS011;168;48.872;9.226;2023-02-27T05:40:18;3.93;;;3.53;;
359;SDS011;168;48.872;9.226;2023-02-27T05:42:51;4.10;;;3.80;;
359;SDS011;168;48.872;9.226;2023-02-27T05:45:24;3.70;;;3.37;;
359;SDS011;168;48.872;9.226;2023-02-27T05:47:56;3.53;;;3.27;;
359;SDS011;168;48.872;9.226;2023-02-27T05:50:29;4.23;;;3.83;;
359;SDS011;168;48.872;9.226;2023-02-27T05:52:59;3.30;;;3.10;;
359;SDS011;168;48.872;9.226;2023-02-27T05:55:31;4.70;;;3.50;;
359;SDS011;168;48.872;9.226;2023-02-27T05:58:05;5.73;;;3.80;;
359;SDS011;168;48.872;9.226;2023-02-27T06:00:39;3.63;;;3.33;;
359;SDS011;168;48.872;9.226;2023-02-27T06:03:10;4.77;;;3.60;;
359;SDS011;168;48.872;9.226;2023-02-27T06:05:38;7.63;;;4.07;;
359;SDS011;168;48.872;9.226;2023-02-27T06:08:07;5.27;;;4.17;;
359;SDS011;168;48.872;9.226;2023-02-27T06:10:36;3.60;;;3.40;;
359;SDS011;168;48.872;9.226;2023-02-27T06:13:04;11.70;;;4.17;;
359;SDS011;168;48.872;9.226;2023-02-27T06:15:32;7.07;;;4.13;;
359;SDS011;168;48.872;9.226;2023-02-27T06:17:59;7.30;;;3.80;;
359;SDS011;168;48.872;9.226;2023-02-27T06:20:27;6.07;;;4.43;;
359;SDS011;168;48.872;9.226;2023-02-27T06:22:54;3.90;;;3.47;;
359;SDS011;168;48.872;9.226;2023-02-27T06:25:21;4.50;;;3.90;;
359;SDS011;168;48.872;9.226;2023-02-27T06:27:49;4.67;;;3.90;;
359;SDS011;168;48.872;9.226;2023-02-27T06:30:18;6.40;;;4.23;;
359;SDS011;168;48.872;9.226;2023-02-27T06:32:45;5.27;;;4.00;;
359;SDS011;168;48.872;9.226;2023-02-27T06:35:12;6.60;;;4.20;;
359;SDS011;168;48.872;9.226;2023-02-27T06:37:40;4.23;;;3.80;;
359;SDS011;168;48.872;9.226;2023-02-27T06:40:08;5.10;;;4.30;;
359;SDS011;168;48.872;9.226;2023-02-27T06:42:37;4.83;;;4.43;;
359;SDS011;168;48.872;9.226;2023-02-27T06:45:04;4.70;;;4.13;;
359;SDS011;168;48.872;9.226;2023-02-27T06:47:34;7.43;;;5.50;;
359;SDS011;168;48.872;9.226;2023-02-27T06:50:02;6.13;;;4.10;;
359;SDS011;168;48.872;9.226;2023-02-27T06:52:30;4.00;;;3.67;;
359;SDS011;168;48.872;9.226;2023-02-27T06:54:58;4.33;;;3.93;;
359;SDS011;168;48.872;9.226;2023-02-27T06:57:25;6.10;;;3.97;;
359;SDS011;168;48.872;9.226;2023-02-27T06:59:53;4.30;;;3.90;;
359;SDS011;168;48.872;9.226;2023-02-27T07:02:20;4.40;;;4.00;;
359;SDS011;168;48.872;9.226;2023-02-27T07:04:51;5.03;;;4.27;;
359;SDS011;168;48.872;9.226;2023-02-27T07:07:19;6.00;;;4.23;;
359;SDS011;168;48.872;9.226;2023-02-27T07:09:46;6.47;;;4.80;;
359;SDS011;168;48.872;9.226;2023-02-27T07:12:13;4.77;;;4.10;;
359;SDS011;168;48.872;9.226;2023-02-27T07:14:41;3.73;;;3.43;;
359;SDS011;168;48.872;9.226;2023-02-27T07:17:08;4.90;;;4.50;;
359;SDS011;168;48.872;9.226;2023-02-27T07:19:36;4.80;;;4.40;;
359;SDS011;168;48.872;9.226;2023-02-27T07:22:06;4.70;;;4.30;;
359;SDS011;168;48.872;9.226;2023-02-27T07:24:34;3.90;;;3.37;;
359;SDS011;168;48.872;9.226;2023-02-27T07:27:02;5.70;;;4.97;;
359;SDS011;168;48.872;9.226;2023-02-27T07:29:29;4.13;;;3.77;;
359;SDS011;168;48.872;9.226;2023-02-27T07:31:57;5.37;;;4.37;;
359;SDS011;168;48.872;9.226;2023-02-27T07:34:25;4.80;;;3.77;;
359;SDS011;168;48.872;9.226;2023-02-27T07:36:53;5.80;;;4.10;;
359;SDS011;168;48.872;9.226;2023-02-27T07:39:22;3.90;;;3.60;;
359;SDS011;168;48.872;9.226;2023-02-27T07:41:49;4.27;;;3.87;;
359;SDS011;168;48.872;9.226;2023-02-27T07:44:16;3.80;;;3.50;;
359;SDS011;168;48.872;9.226;2023-02-27T07:46:44;5.50;;;4.07;;
359;SDS011;168;48.872;9.226;2023-02-27T07:49:12;6.67;;;3.90;;
359;SDS011;168;48.872;9.226;2023-02-27T07:51:39;4.93;;;4.13;;
359;SDS011;168;48.872;9.226;2023-02-27T07:54:07;6.37;;;4.30;;
359;SDS011;168;48.872;9.226;2023-02-27T07:56:35;4.43;;;4.03;;
359;SDS011;168;48.872;9.226;2023-02-27T07:59:03;4.93;;;4.07;;
359;SDS011;168;48.872;9.226;2023-02-27T08:01:30;3.70;;;3.40;;
359;SDS011;168;48.872;9.226;2023-02-27T08:03:57;4.03;;;3.63;;
359;SDS011;168;48.872;9.226;2023-02-27T08:06:25;4.03;;;3.73;;
359;SDS011;168;48.872;9.226;2023-02-27T08:08:52;4.03;;;3.63;;
359;SDS011;168;48.872;9.226;2023-02-27T08:11:20;4.00;;;3.70;;
359;SDS011;168;48.872;9.226;2023-02-27T08:13:48;4.33;;;4.00;;
359;SDS011;168;48.872;9.226;2023-02-27T08:16:16;5.47;;;4.30;;
359;SDS011;168;48.872;9.226;2023-02-27T08:18:43;4.30;;;3.90;;
359;SDS011;168;48.872;9.226;2023-02-27T08:21:10;4.77;;;3.90;;
359;SDS011;168;48.872;9.226;2023-02-27T08:23:38;4.70;;;4.10;;
359;SDS011;168;48.872;9.226;2023-02-27T08:26:05;4.33;;;3.90;;
359;SDS011;168;48.872;9.226;2023-02-27T08:28:32;4.00;;;3.60;;
359;SDS011;168;48.872;9.226;2023-02-27T08:31:01;4.17;;;3.77;;
359;SDS011;168;48.872;9.226;2023-02-27T08:33:28;3.97;;;3.67;;
359;SDS011;168;48.872;9.226;2023-02-27T08:35:56;4.43;;;4.03;;
359;SDS011;168;48.872;9.226;2023-02-27T08:38:23;4.40;;;4.00;;
359;SDS011;168;48.872;9.226;2023-02-27T08:40:51;4.00;;;3.60;;
359;SDS011;168;48.872;9.226;2023-02-27T08:43:18;4.03;;;3.70;;
359;SDS011;168;48.872;9.226;2023-02-27T08:45:46;4.17;;;3.80;;
359;SDS011;168;48.872;9.226;2023-02-27T08:48:15;3.90;;;3.50;;
359;SDS011;168;48.872;9.226;2023-02-27T08:50:43;7.40;;;4.53;;
359;SDS011;168;48.872;9.226;2023-02-27T08:53:11;5.07;;;3.57;;
359;SDS011;168;48.872;9.226;2023-02-27T08:55:39;4.90;;;4.40;;
359;SDS011;168;48.872;9.226;2023-02-27T08:58:07;3.63;;;3.23;;
359;SDS011;168;48.872;9.226;2023-02-27T09:00:34;4.10;;;3.57;;
359;SDS011;168;48.872;9.226;2023-02-27T09:03:02;4.30;;;4.00;;
359;SDS011;168;48.872;9.226;2023-02-27T09:05:31;4.57;;;4.17;;
359;SDS011;168;48.872;9.226;2023-02-27T09:07:59;3.73;;;3.30;;
359;SDS011;168;48.872;9.226;2023-02-27T09:10:27;4.70;;;4.00;;
359;SDS011;168;48.872;9.226;2023-02-27T09:12:54;3.97;;;3.13;;
359;SDS011;168;48.872;9.226;2023-02-27T09:15:21;3.87;;;3.50;;
359;SDS011;168;48.872;9.226;2023-02-27T09:17:49;3.50;;;3.20;;
359;SDS011;168;48.872;9.226;2023-02-27T09:20:17;3.37;;;3.17;;
359;SDS011;168;48.872;9.226;2023-02-27T09:22:45;4.73;;;3.70;;
359;SDS011;168;48.872;9.226;2023-02-27T09:25:13;3.40;;;3.20;;
359;SDS011;168;48.872;9.226;2023-02-27T09:27:40;3.47;;;3.17;;
359;SDS011;168;48.872;9.226;2023-02-27T09:30:08;3.30;;;3.07;;
359;SDS011;168;48.872;9.226;2023-02-27T09:32:36;3.43;;;3.13;;
359;SDS011;168;48.872;9.226;2023-02-27T09:35:04;5.40;;;3.50;;
359;SDS011;168;48.872;9.226;2023-02-27T09:37:33;3.77;;;3.33;;
359;SDS011;168;48.872;9.226;2023-02-27T09:40:03;4.60;;;3.20;;
359;SDS011;168;48.872;9.226;2023-02-27T09:42:32;3.80;;;3.50;;
359;SDS011;168;48.872;9.226;2023-02-27T09:45:11;3.30;;;2.80;;
359;SDS011;168;48.872;9.226;2023-02-27T09:47:48;4.70;;;2.63;;
359;SDS011;168;48.872;9.226;2023-02-27T09:50:35;3.87;;;3.57;;
359;SDS011;168;48.872;9.226;2023-02-27T09:53:05;3.20;;;3.00;;
359;SDS011;168;48.872;9.226;2023-02-27T09:55:39;4.07;;;3.30;;
359;SDS011;168;48.872;9.226;2023-02-27T09:58:13;3.87;;;3.53;;
359;SDS011;168;48.872;9.226;2023-02-27T10:00:52;5.53;;;3.10;;
359;SDS011;168;48.872;9.226;2023-02-27T10:03:28;3.80;;;3.40;;
359;SDS011;168;48.872;9.226;2023-02-27T10:06:09;3.00;;;2.80;;
359;SDS011;168;48.872;9.226;2023-02-27T10:08:49;3.80;;;3.10;;
359;SDS011;168;48.872;9.226;2023-02-27T10:11:25;3.03;;;2.80;;
359;SDS011;168;48.872;9.226;2023-02-27T10:14:03;4.87;;;3.07;;
359;SDS011;168;48.872;9.226;2023-02-27T10:16:36;3.27;;;2.97;;
359;SDS011;168;48.872;9.226;2023-02-27T10:19:05;3.30;;;3.07;;
359;SDS011;168;48.872;9.226;2023-02-27T10:21:40;4.07;;;3.67;;
359;SDS011;168;48.872;9.226;2023-02-27T10:24:12;2.97;;;2.63;;
359;SDS011;168;48.872;9.226;2023-02-27T10:26:49;3.20;;;2.90;;
359;SDS011;168;48.872;9.226;2023-02-27T10:29:20;4.57;;;3.33;;
359;SDS011;168;48.872;9.226;2023-02-27T10:31:54;2.77;;;2.57;;
359;SDS011;168;48.872;9.226;2023-02-27T10:34:26;5.37;;;3.40;;
359;SDS011;168;48.872;9.226;2023-02-27T10:36:56;2.97;;;2.77;;
359;SDS011;168;48.872;9.226;2023-02-27T10:39:27;4.03;;;2.47;;
359;SDS011;168;48.872;9.226;2023-02-27T10:42:00;3.83;;;2.53;;
359;SDS011;168;48.872;9.226;2023-02-27T10:44:31;3.20;;;2.80;;
359;SDS011;168;48.872;9.226;2023-02-27T10:46:59;3.10;;;2.80;;
359;SDS011;168;48.872;9.226;2023-02-27T10:49:29;4.27;;;3.10;;
359;SDS011;168;48.872;9.226;2023-02-27T10:52:05;2.60;;;2.40;;
359;SDS011;168;48.872;9.226;2023-02-27T10:54:35;2.80;;;2.60;;
359;SDS011;168;48.872;9.226;2023-02-27T10:57:05;3.00;;;2.70;;
359;SDS011;168;48.872;9.226;2023-02-27T10:59:48;2.60;;;2.40;;
359;SDS011;168;48.872;9.226;2023-02-27T11:02:19;2.83;;;2.40;;
359;SDS011;168;48.872;9.226;2023-02-27T11:04:49;3.10;;;2.80;;
359;SDS011;168;48.872;9.226;2023-02-27T11:07:25;2.77;;;2.57;;
359;SDS011;168;48.872;9.226;2023-02-27T11:09:58;3.33;;;2.80;;
359;SDS011;168;48.872;9.226;2023-02-27T11:12:32;3.33;;;2.20;;
359;SDS011;168;48.872;9.226;2023-02-27T11:15:02;2.87;;;2.67;;
359;SDS011;168;48.872;9.226;2023-02-27T11:17:48;3.03;;;2.83;;
359;SDS011;168;48.872;9.226;2023-02-27T11:20:30;5.77;;;2.83;;
359;SDS011;168;48.872;9.226;2023-02-27T11:23:01;3.20;;;2.50;;
359;SDS011;168;48.872;9.226;2023-02-27T11:25:30;2.87;;;2.57;;
359;SDS011;168;48.872;9.226;2023-02-27T11:28:13;2.20;;;2.00;;
359;SDS011;168;48.872;9.226;2023-02-27T11:30:54;2.90;;;2.40;;
359;SDS011;168;48.872;9.226;2023-02-27T11:33:23;4.33;;;2.90;;
359;SDS011;168;48.872;9.226;2023-02-27T11:35:52;2.63;;;2.53;;
359;SDS011;168;48.872;9.226;2023-02-27T11:38:21;3.67;;;2.50;;
359;SDS011;168;48.872;9.226;2023-02-27T11:40:51;3.13;;;2.30;;
359;SDS011;168;48.872;9.226;2023-02-27T11:43:22;3.07;;;2.83;;
359;SDS011;168;48.872;9.226;2023-02-27T11:45:52;2.73;;;2.57;;
359;SDS011;168;48.872;9.226;2023-02-27T11:48:22;3.00;;;2.70;;
359;SDS011;168;48.872;9.226;2023-02-27T11:51:01;3.70;;;2.30;;
359;SDS011;168;48.872;9.226;2023-02-27T11:53:44;2.43;;;2.23;;
359;SDS011;168;48.872;9.226;2023-02-27T11:56:24;2.73;;;2.50;;
359;SDS011;168;48.872;9.226;2023-02-27T11:58:59;2.80;;;2.60;;
359;SDS011;168;48.872;9.226;2023-02-27T12:01:31;3.73;;;3.40;;
359;SDS011;168;48.872;9.226;2023-02-27T12:04:07;3.47;;;2.90;;
359;SDS011;168;48.872;9.226;2023-02-27T12:06:39;2.60;;;2.33;;
359;SDS011;168;48.872;9.226;2023-02-27T12:09:15;3.10;;;2.80;;
359;SDS011;168;48.872;9.226;2023-02-27T12:11:55;3.10;;;2.80;;
359;SDS011;168;48.872;9.226;2023-02-27T12:14:25;2.63;;;2.43;;
359;SDS011;168;48.872;9.226;2023-02-27T12:16:58;7.17;;;4.60;;
359;SDS011;168;48.872;9.226;2023-02-27T12:19:34;3.07;;;2.67;;
359;SDS011;168;48.872;9.226;2023-02-27T12:22:09;2.90;;;2.70;;
359;SDS011;168;48.872;9.226;2023-02-27T12:24:43;6.70;;;3.33;;
359;SDS011;168;48.872;9.226;2023-02-27T12:27:18;4.37;;;3.10;;
359;SDS011;168;48.872;9.226;2023-02-27T12:29:51;2.80;;;2.60;;
359;SDS011;168;48.872;9.226;2023-02-27T12:32:22;3.10;;;2.90;;
359;SDS011;168;48.872;9.226;2023-02-27T12:34:55;4.30;;;2.93;;
359;SDS011;168;48.872;9.226;2023-02-27T12:37:27;4.77;;;3.40;;
359;SDS011;168;48.872;9.226;2023-02-27T12:39:59;2.70;;;2.50;;
359;SDS011;168;48.872;9.226;2023-02-27T12:42:42;3.27;;;2.97;;
359;SDS011;168;48.872;9.226;2023-02-27T12:45:38;2.77;;;2.50;;
359;SDS011;168;48.872;9.226;2023-02-27T12:48:32;3.47;;;2.60;;
359;SDS011;168;48.872;9.226;2023-02-27T12:51:09;2.80;;;2.60;;
359;SDS011;168;48.872;9.226;2023-02-27T12:53:51;3.23;;;2.93;;
359;SDS011;168;48.872;9.226;2023-02-27T12:56:26;2.90;;;2.70;;
359;SDS011;168;48.872;9.226;2023-02-27T12:59:08;2.57;;;2.37;;
359;SDS011;168;48.872;9.226;2023-02-27T13:01:55;4.33;;;3.47;;
359;SDS011;168;48.872;9.226;2023-02-27T13:04:31;3.00;;;2.70;;
359;SDS011;168;48.872;9.226;2023-02-27T13:07:07;4.00;;;3.10;;
359;SDS011;168;48.872;9.226;2023-02-27T13:09:44;4.20;;;3.27;;
359;SDS011;168;48.872;9.226;2023-02-27T13:12:22;3.30;;;2.50;;
359;SDS011;168;48.872;9.226;2023-02-27T13:14:55;4.00;;;3.03;;
359;SDS011;168;48.872;9.226;2023-02-27T13:17:28;4.60;;;3.00;;
359;SDS011;168;48.872;9.226;2023-02-27T13:20:01;3.10;;;2.60;;
359;SDS011;168;48.872;9.226;2023-02-27T13:22:38;4.73;;;3.33;;
359;SDS011;168;48.872;9.226;2023-02-27T13:25:13;5.87;;;3.63;;
359;SDS011;168;48.872;9.226;2023-02-27T13:27:42;5.90;;;3.80;;
359;SDS011;168;48.872;9.226;2023-02-27T13:30:13;3.20;;;2.90;;
359;SDS011;168;48.872;9.226;2023-02-27T13:32:51;4.13;;;2.73;;
359;SDS011;168;48.872;9.226;2023-02-27T13:35:28;4.13;;;3.27;;
359;SDS011;168;48.872;9.226;2023-02-27T13:38:02;3.07;;;2.80;;
359;SDS011;168;48.872;9.226;2023-02-27T13:40:49;3.60;;;2.90;;
359;SDS011;168;48.872;9.226;2023-02-27T13:43:27;2.40;;;2.20;;
359;SDS011;168;48.872;9.226;2023-02-27T13:45:58;3.20;;;2.97;;
359;SDS011;168;48.872;9.226;2023-02-27T13:48:37;3.17;;;2.87;;
359;SDS011;168;48.872;9.226;2023-02-27T13:51:08;2.80;;;2.57;;
359;SDS011;168;48.872;9.226;2023-02-27T13:59:50;4.83;;;2.50;;
359;SDS011;168;48.872;9.226;2023-02-27T14:02:27;3.10;;;2.47;;
359;SDS011;168;48.872;9.226;2023-02-27T14:05:09;3.53;;;2.43;;
359;SDS011;168;48.872;9.226;2023-02-27T14:07:55;3.10;;;2.40;;
359;SDS011;168;48.872;9.226;2023-02-27T14:10:31;2.93;;;2.63;;
359;SDS011;168;48.872;9.226;2023-02-27T14:13:01;3.33;;;2.40;;
359;SDS011;168;48.872;9.226;2023-02-27T14:15:49;2.87;;;2.17;;
359;SDS011;168;48.872;9.226;2023-02-27T14:24:17;2.50;;;2.40;;
359;SDS011;168;48.872;9.226;2023-02-27T14:26:48;2.33;;;2.13;;
359;SDS011;168;48.872;9.226;2023-02-27T14:29:16;2.43;;;2.23;;
359;SDS011;168;48.872;9.226;2023-02-27T14:31:46;2.87;;;2.67;;
359;SDS011;168;48.872;9.226;2023-02-27T14:34:15;2.00;;;1.90;;
359;SDS011;168;48.872;9.226;2023-02-27T14:36:47;4.27;;;2.80;;
359;SDS011;168;48.872;9.226;2023-02-27T14:39:18;4.50;;;2.37;;
359;SDS011;168;48.872;9.226;2023-02-27T14:41:51;2.70;;;2.50;;
359;SDS011;168;48.872;9.226;2023-02-27T14:44:27;4.10;;;2.43;;
359;SDS011;168;48.872;9.226;2023-02-27T14:47:03;5.13;;;2.50;;
359;SDS011;168;48.872;9.226;2023-02-27T14:49:32;2.33;;;2.10;;
359;SDS011;168;48.872;9.226;2023-02-27T14:52:10;2.20;;;2.00;;
359;SDS011;168;48.872;9.226;2023-02-27T14:54:39;2.33;;;2.10;;
359;SDS011;168;48.872;9.226;2023-02-27T14:57:13;2.20;;;2.00;;
359;SDS011;168;48.872;9.226;2023-02-27T14:59:44;2.53;;;2.33;;
359;SDS011;168;48.872;9.226;2023-02-27T15:02:17;2.97;;;2.40;;
359;SDS011;168;48.872;9.226;2023-02-27T15:04:49;3.67;;;2.30;;
359;SDS011;168;48.872;9.226;2023-02-27T15:07:21;2.60;;;2.10;;
359;SDS011;168;48.872;9.226;2023-02-27T15:09:54;3.60;;;3.03;;
359;SDS011;168;48.872;9.226;2023-02-27T15:12:25;6.90;;;2.80;;
359;SDS011;168;48.872;9.226;2023-02-27T15:14:54;3.23;;;3.03;;
359;SDS011;168;48.872;9.226;2023-02-27T15:17:25;6.20;;;3.63;;
359;SDS011;168;48.872;9.226;2023-02-27T15:19:54;4.67;;;3.07;;
359;SDS011;168;48.872;9.226;2023-02-27T15:22:24;4.20;;;3.57;;
359;SDS011;168;48.872;9.226;2023-02-27T15:24:56;5.57;;;2.40;;
359;SDS011;168;48.872;9.226;2023-02-27T15:27:26;4.90;;;2.57;;
359;SDS011;168;48.872;9.226;2023-02-27T15:29:54;2.20;;;2.00;;
359;SDS011;168;48.872;9.226;2023-02-27T15:32:27;2.53;;;2.33;;
359;SDS011;168;48.872;9.226;2023-02-27T15:34:57;3.90;;;2.53;;
359;SDS011;168;48.872;9.226;2023-02-27T15:37:27;2.43;;;2.20;;
359;SDS011;168;48.872;9.226;2023-02-27T15:39:57;3.20;;;1.67;;
359;SDS011;168;48.872;9.226;2023-02-27T15:42:28;2.80;;;2.20;;
359;SDS011;168;48.872;9.226;2023-02-27T15:44:58;2.70;;;2.00;;
359;SDS011;168;48.872;9.226;2023-02-27T15:47:26;1.70;;;1.60;;
359;SDS011;168;48.872;9.226;2023-02-27T15:49:58;2.37;;;2.17;;
359;SDS011;168;48.872;9.226;2023-02-27T15:52:30;2.97;;;2.50;;
359;SDS011;168;48.872;9.226;2023-02-27T15:55:05;2.77;;;2.37;;
359;SDS011;168;48.872;9.226;2023-02-27T15:57:40;2.90;;;2.30;;
359;SDS011;168;48.872;9.226;2023-02-27T16:00:09;2.97;;;2.67;;
359;SDS011;168;48.872;9.226;2023-02-27T16:02:40;2.60;;;2.37;;
359;SDS011;168;48.872;9.226;2023-02-27T16:05:14;2.67;;;2.30;;
359;SDS011;168;48.872;9.226;2023-02-27T16:07:43;2.70;;;2.13;;
359;SDS011;168;48.872;9.226;2023-02-27T16:10:16;2.50;;;1.90;;
359;SDS011;168;48.872;9.226;2023-02-27T16:12:47;3.13;;;1.90;;
359;SDS011;168;48.872;9.226;2023-02-27T16:15:25;1.57;;;1.47;;
359;SDS011;168;48.872;9.226;2023-02-27T16:17:59;2.40;;;2.30;;
359;SDS011;168;48.872;9.226;2023-02-27T16:20:39;1.90;;;1.80;;
359;SDS011;168;48.872;9.226;2023-02-27T16:23:14;6.00;;;2.37;;
359;SDS011;168;48.872;9.226;2023-02-27T16:25:58;3.07;;;2.13;;
359;SDS011;168;48.872;9.226;2023-02-27T16:28:30;2.80;;;2.33;;
359;SDS011;168;48.872;9.226;2023-02-27T16:30:58;2.27;;;2.07;;
359;SDS011;168;48.872;9.226;2023-02-27T16:33:28;2.63;;;1.87;;